sensor_id;sensor_type;location;lat;lon;timestamp;P1;durP1;ratioP1;P2;durP2;ratioP2
26191;SDS011;13935;55.672;37.764;2023-06-14T02:55:53;24.85;;;15.55;;
26191;SDS011;13935;55.672;37.764;2023-06-14T02:58:26;28.63;;;15.18;;
26191;SDS011;13935;55.672;37.764;2023-06-14T03:01:09;26.50;;;16.00;;
26191;SDS011;13935;55.672;37.764;2023-06-14T03:05:45;25.92;;;16.02;;
26191;SDS011;13935;55.672;37.764;2023-06-14T03:08:04;23.38;;;15.23;;
26191;SDS011;13935;55.672;37.764;2023-06-14T03:10:09;24.13;;;15.75;;
26191;SDS011;13935;55.672;37.764;2023-06-14T03:12:46;23.45;;;14.57;;
26191;SDS011;13935;55.672;37.764;2023-06-14T03:14:34;24.80;;;16.00;;
26191;SDS011;13935;55.672;37.764;2023-06-14T03:16:06;24.65;;;14.75;;
26191;SDS011;13935;55.672;37.764;2023-06-14T03:18:16;23.92;;;16.73;;
26191;SDS011;13935;55.672;37.764;2023-06-14T03:19:43;25.92;;;15.98;;
26191;SDS011;13935;55.672;37.764;2023-06-14T03:21:04;26.40;;;15.90;;
26191;SDS011;13935;55.672;37.764;2023-06-14T03:22:26;25.17;;;15.70;;
26191;SDS011;13935;55.672;37.764;2023-06-14T03:24:06;23.38;;;15.52;;
26191;SDS011;13935;55.672;37.764;2023-06-14T03:25:15;25.45;;;16.30;;
26191;SDS011;13935;55.672;37.764;2023-06-14T03:26:46;30.00;;;15.65;;
26191;SDS011;13935;55.672;37.764;2023-06-14T03:28:39;25.15;;;15.95;;
26191;SDS011;13935;55.672;37.764;2023-06-14T03:30:09;22.08;;;15.40;;
26191;SDS011;13935;55.672;37.764;2023-06-14T03:31:30;24.27;;;15.30;;
26191;SDS011;13935;55.672;37.764;2023-06-14T03:33:19;22.85;;;15.38;;
26191;SDS011;13935;55.672;37.764;2023-06-14T03:34:39;27.88;;;14.70;;
26191;SDS011;13935;55.672;37.764;2023-06-14T03:36:01;23.48;;;16.10;;
26191;SDS011;13935;55.672;37.764;2023-06-14T03:37:23;21.55;;;15.25;;
26191;SDS011;13935;55.672;37.764;2023-06-14T03:38:44;27.90;;;15.27;;
26191;SDS011;13935;55.672;37.764;2023-06-14T03:40:08;22.20;;;14.57;;
26191;SDS011;13935;55.672;37.764;2023-06-14T03:41:42;22.73;;;14.88;;
26191;SDS011;13935;55.672;37.764;2023-06-14T03:43:27;20.02;;;14.65;;
26191;SDS011;13935;55.672;37.764;2023-06-14T03:45:07;24.75;;;14.82;;
26191;SDS011;13935;55.672;37.764;2023-06-14T03:48:40;25.92;;;17.30;;
26191;SDS011;13935;55.672;37.764;2023-06-14T03:50:19;24.45;;;15.57;;
26191;SDS011;13935;55.672;37.764;2023-06-14T03:54:36;23.92;;;13.98;;
26191;SDS011;13935;55.672;37.764;2023-06-14T03:56:11;20.52;;;13.02;;
26191;SDS011;13935;55.672;37.764;2023-06-14T03:58:40;20.48;;;12.95;;
26191;SDS011;13935;55.672;37.764;2023-06-14T03:59:55;19.35;;;12.15;;
26191;SDS011;13935;55.672;37.764;2023-06-14T04:06:16;20.52;;;12.15;;
26191;SDS011;13935;55.672;37.764;2023-06-14T04:08:07;16.60;;;12.13;;
26191;SDS011;13935;55.672;37.764;2023-06-14T04:09:40;20.20;;;12.20;;
26191;SDS011;13935;55.672;37.764;2023-06-14T04:10:48;18.38;;;12.15;;
26191;SDS011;13935;55.672;37.764;2023-06-14T04:13:06;15.23;;;10.77;;
26191;SDS011;13935;55.672;37.764;2023-06-14T04:15:09;14.32;;;10.63;;
26191;SDS011;13935;55.672;37.764;2023-06-14T04:17:03;16.98;;;10.73;;
26191;SDS011;13935;55.672;37.764;2023-06-14T04:18:44;18.38;;;10.55;;
26191;SDS011;13935;55.672;37.764;2023-06-14T04:21:47;17.45;;;10.05;;
26191;SDS011;13935;55.672;37.764;2023-06-14T04:23:17;13.65;;;9.52;;
26191;SDS011;13935;55.672;37.764;2023-06-14T04:25:02;15.57;;;9.60;;
26191;SDS011;13935;55.672;37.764;2023-06-14T04:29:37;20.42;;;9.68;;
26191;SDS011;13935;55.672;37.764;2023-06-14T04:31:31;12.82;;;10.05;;
26191;SDS011;13935;55.672;37.764;2023-06-14T04:33:06;17.17;;;10.27;;
26191;SDS011;13935;55.672;37.764;2023-06-14T04:34:42;13.90;;;9.68;;
26191;SDS011;13935;55.672;37.764;2023-06-14T04:36:15;13.48;;;9.80;;
26191;SDS011;13935;55.672;37.764;2023-06-14T04:38:15;14.93;;;9.52;;
26191;SDS011;13935;55.672;37.764;2023-06-14T04:40:27;15.93;;;9.70;;
26191;SDS011;13935;55.672;37.764;2023-06-14T04:43:08;15.07;;;9.30;;
26191;SDS011;13935;55.672;37.764;2023-06-14T04:44:51;13.38;;;10.32;;
26191;SDS011;13935;55.672;37.764;2023-06-14T04:46:15;15.48;;;9.30;;
26191;SDS011;13935;55.672;37.764;2023-06-14T04:50:56;11.93;;;9.70;;
26191;SDS011;13935;55.672;37.764;2023-06-14T04:52:25;16.77;;;9.52;;
26191;SDS011;13935;55.672;37.764;2023-06-14T04:54:14;14.77;;;9.23;;
26191;SDS011;13935;55.672;37.764;2023-06-14T04:55:56;15.85;;;9.63;;
26191;SDS011;13935;55.672;37.764;2023-06-14T04:57:31;16.30;;;10.18;;
26191;SDS011;13935;55.672;37.764;2023-06-14T04:59:12;17.65;;;8.93;;
26191;SDS011;13935;55.672;37.764;2023-06-14T05:00:31;15.07;;;9.55;;
26191;SDS011;13935;55.672;37.764;2023-06-14T05:05:59;13.00;;;9.80;;
26191;SDS011;13935;55.672;37.764;2023-06-14T05:09:37;13.82;;;9.05;;
26191;SDS011;13935;55.672;37.764;2023-06-14T05:11:37;17.25;;;9.50;;
26191;SDS011;13935;55.672;37.764;2023-06-14T05:13:37;13.48;;;8.63;;
26191;SDS011;13935;55.672;37.764;2023-06-14T05:15:03;15.70;;;9.45;;
26191;SDS011;13935;55.672;37.764;2023-06-14T05:16:25;15.25;;;8.60;;
26191;SDS011;13935;55.672;37.764;2023-06-14T05:17:38;12.55;;;9.43;;
26191;SDS011;13935;55.672;37.764;2023-06-14T05:19:43;13.48;;;8.18;;
26191;SDS011;13935;55.672;37.764;2023-06-14T05:21:44;12.70;;;7.63;;
26191;SDS011;13935;55.672;37.764;2023-06-14T05:23:34;11.85;;;7.45;;
26191;SDS011;13935;55.672;37.764;2023-06-14T05:24:49;9.82;;;6.82;;
26191;SDS011;13935;55.672;37.764;2023-06-14T05:26:26;13.35;;;7.95;;
26191;SDS011;13935;55.672;37.764;2023-06-14T05:27:52;11.35;;;7.95;;
26191;SDS011;13935;55.672;37.764;2023-06-14T05:29:19;11.70;;;8.15;;
26191;SDS011;13935;55.672;37.764;2023-06-14T05:30:51;14.98;;;7.18;;
26191;SDS011;13935;55.672;37.764;2023-06-14T05:33:57;10.10;;;6.10;;
26191;SDS011;13935;55.672;37.764;2023-06-14T05:41:47;10.43;;;6.50;;
26191;SDS011;13935;55.672;37.764;2023-06-14T05:43:52;7.00;;;5.53;;
26191;SDS011;13935;55.672;37.764;2023-06-14T05:45:40;13.15;;;5.78;;
26191;SDS011;13935;55.672;37.764;2023-06-14T05:48:21;9.32;;;5.20;;
26191;SDS011;13935;55.672;37.764;2023-06-14T05:51:20;9.85;;;5.07;;
26191;SDS011;13935;55.672;37.764;2023-06-14T05:53:17;9.02;;;4.30;;
26191;SDS011;13935;55.672;37.764;2023-06-14T05:55:12;7.95;;;4.68;;
26191;SDS011;13935;55.672;37.764;2023-06-14T05:59:11;7.75;;;4.78;;
26191;SDS011;13935;55.672;37.764;2023-06-14T06:00:14;7.07;;;4.78;;
26191;SDS011;13935;55.672;37.764;2023-06-14T06:01:21;7.10;;;4.47;;
26191;SDS011;13935;55.672;37.764;2023-06-14T06:02:25;6.07;;;4.60;;
26191;SDS011;13935;55.672;37.764;2023-06-14T06:03:27;8.88;;;5.35;;
26191;SDS011;13935;55.672;37.764;2023-06-14T06:04:31;10.48;;;6.13;;
26191;SDS011;13935;55.672;37.764;2023-06-14T06:05:33;7.45;;;4.45;;
26191;SDS011;13935;55.672;37.764;2023-06-14T06:06:38;9.38;;;4.68;;
26191;SDS011;13935;55.672;37.764;2023-06-14T06:07:42;6.10;;;3.88;;
26191;SDS011;13935;55.672;37.764;2023-06-14T06:08:51;10.40;;;4.13;;
26191;SDS011;13935;55.672;37.764;2023-06-14T06:09:54;6.18;;;3.85;;
26191;SDS011;13935;55.672;37.764;2023-06-14T06:10:56;7.75;;;3.83;;
26191;SDS011;13935;55.672;37.764;2023-06-14T06:12:04;7.10;;;3.95;;
26191;SDS011;13935;55.672;37.764;2023-06-14T06:13:08;7.32;;;3.80;;
26191;SDS011;13935;55.672;37.764;2023-06-14T06:14:12;6.78;;;3.58;;
26191;SDS011;13935;55.672;37.764;2023-06-14T06:15:14;7.80;;;3.90;;
26191;SDS011;13935;55.672;37.764;2023-06-14T06:16:18;8.38;;;3.97;;
26191;SDS011;13935;55.672;37.764;2023-06-14T06:17:22;6.93;;;3.78;;
26191;SDS011;13935;55.672;37.764;2023-06-14T06:18:41;6.53;;;3.88;;
26191;SDS011;13935;55.672;37.764;2023-06-14T06:19:45;7.63;;;4.32;;
26191;SDS011;13935;55.672;37.764;2023-06-14T06:20:48;6.85;;;3.75;;
26191;SDS011;13935;55.672;37.764;2023-06-14T06:21:50;14.55;;;3.92;;
26191;SDS011;13935;55.672;37.764;2023-06-14T06:22:52;5.28;;;3.67;;
26191;SDS011;13935;55.672;37.764;2023-06-14T06:23:55;5.07;;;3.53;;
26191;SDS011;13935;55.672;37.764;2023-06-14T06:24:58;8.07;;;3.97;;
26191;SDS011;13935;55.672;37.764;2023-06-14T06:26:00;7.20;;;3.38;;
26191;SDS011;13935;55.672;37.764;2023-06-14T06:27:03;6.10;;;3.53;;
26191;SDS011;13935;55.672;37.764;2023-06-14T06:28:06;7.43;;;3.65;;
26191;SDS011;13935;55.672;37.764;2023-06-14T06:29:08;7.70;;;3.80;;
26191;SDS011;13935;55.672;37.764;2023-06-14T06:30:10;6.80;;;3.72;;
26191;SDS011;13935;55.672;37.764;2023-06-14T06:31:13;5.95;;;3.60;;
26191;SDS011;13935;55.672;37.764;2023-06-14T06:32:15;7.53;;;3.78;;
26191;SDS011;13935;55.672;37.764;2023-06-14T06:33:17;6.38;;;3.40;;
26191;SDS011;13935;55.672;37.764;2023-06-14T06:34:20;13.18;;;3.95;;
26191;SDS011;13935;55.672;37.764;2023-06-14T06:35:22;11.32;;;4.28;;
26191;SDS011;13935;55.672;37.764;2023-06-14T06:36:24;6.13;;;4.05;;
26191;SDS011;13935;55.672;37.764;2023-06-14T06:37:27;6.72;;;4.15;;
26191;SDS011;13935;55.672;37.764;2023-06-14T06:38:29;5.60;;;3.67;;
26191;SDS011;13935;55.672;37.764;2023-06-14T06:39:32;7.47;;;3.80;;
26191;SDS011;13935;55.672;37.764;2023-06-14T06:40:36;8.77;;;4.30;;
26191;SDS011;13935;55.672;37.764;2023-06-14T06:41:38;6.40;;;4.18;;
26191;SDS011;13935;55.672;37.764;2023-06-14T06:42:45;15.02;;;7.15;;
26191;SDS011;13935;55.672;37.764;2023-06-14T06:43:48;8.18;;;4.25;;
26191;SDS011;13935;55.672;37.764;2023-06-14T06:44:51;11.95;;;4.25;;
26191;SDS011;13935;55.672;37.764;2023-06-14T06:45:53;10.57;;;5.43;;
26191;SDS011;13935;55.672;37.764;2023-06-14T06:47:02;6.93;;;4.07;;
26191;SDS011;13935;55.672;37.764;2023-06-14T06:48:07;7.38;;;3.95;;
26191;SDS011;13935;55.672;37.764;2023-06-14T06:49:12;9.18;;;3.67;;
26191;SDS011;13935;55.672;37.764;2023-06-14T06:50:15;8.25;;;4.00;;
26191;SDS011;13935;55.672;37.764;2023-06-14T06:51:19;6.20;;;4.07;;
26191;SDS011;13935;55.672;37.764;2023-06-14T06:54:05;7.13;;;3.92;;
26191;SDS011;13935;55.672;37.764;2023-06-14T06:55:09;5.25;;;3.50;;
26191;SDS011;13935;55.672;37.764;2023-06-14T06:56:20;7.40;;;3.63;;
26191;SDS011;13935;55.672;37.764;2023-06-14T06:57:27;5.53;;;3.47;;
26191;SDS011;13935;55.672;37.764;2023-06-14T06:58:31;8.15;;;4.30;;
26191;SDS011;13935;55.672;37.764;2023-06-14T06:59:35;5.60;;;3.60;;
26191;SDS011;13935;55.672;37.764;2023-06-14T07:00:37;5.78;;;3.67;;
26191;SDS011;13935;55.672;37.764;2023-06-14T07:01:40;10.00;;;4.28;;
26191;SDS011;13935;55.672;37.764;2023-06-14T07:02:44;7.10;;;4.00;;
26191;SDS011;13935;55.672;37.764;2023-06-14T07:03:47;9.55;;;3.72;;
26191;SDS011;13935;55.672;37.764;2023-06-14T07:04:50;8.50;;;3.78;;
26191;SDS011;13935;55.672;37.764;2023-06-14T07:05:52;6.13;;;3.63;;
26191;SDS011;13935;55.672;37.764;2023-06-14T07:06:55;9.02;;;4.03;;
26191;SDS011;13935;55.672;37.764;2023-06-14T07:07:58;6.72;;;3.65;;
26191;SDS011;13935;55.672;37.764;2023-06-14T07:09:00;7.30;;;3.85;;
26191;SDS011;13935;55.672;37.764;2023-06-14T07:10:04;11.65;;;3.80;;
26191;SDS011;13935;55.672;37.764;2023-06-14T07:11:07;4.43;;;3.42;;
26191;SDS011;13935;55.672;37.764;2023-06-14T07:12:11;7.38;;;3.60;;
26191;SDS011;13935;55.672;37.764;2023-06-14T07:13:13;7.13;;;3.63;;
26191;SDS011;13935;55.672;37.764;2023-06-14T07:14:16;6.95;;;3.75;;
26191;SDS011;13935;55.672;37.764;2023-06-14T07:15:18;7.70;;;4.10;;
26191;SDS011;13935;55.672;37.764;2023-06-14T07:16:20;16.48;;;4.15;;
26191;SDS011;13935;55.672;37.764;2023-06-14T07:17:27;7.10;;;3.72;;
26191;SDS011;13935;55.672;37.764;2023-06-14T07:18:29;6.50;;;3.40;;
26191;SDS011;13935;55.672;37.764;2023-06-14T07:19:32;8.73;;;4.10;;
26191;SDS011;13935;55.672;37.764;2023-06-14T07:20:35;9.38;;;3.83;;
26191;SDS011;13935;55.672;37.764;2023-06-14T07:21:42;8.05;;;3.50;;
26191;SDS011;13935;55.672;37.764;2023-06-14T07:22:45;6.07;;;3.80;;
26191;SDS011;13935;55.672;37.764;2023-06-14T07:23:48;6.13;;;3.70;;
26191;SDS011;13935;55.672;37.764;2023-06-14T07:24:50;6.55;;;4.20;;
26191;SDS011;13935;55.672;37.764;2023-06-14T07:25:52;5.38;;;3.67;;
26191;SDS011;13935;55.672;37.764;2023-06-14T07:26:55;6.93;;;3.42;;
26191;SDS011;13935;55.672;37.764;2023-06-14T07:27:58;6.75;;;3.42;;
26191;SDS011;13935;55.672;37.764;2023-06-14T07:29:00;6.03;;;3.65;;
26191;SDS011;13935;55.672;37.764;2023-06-14T07:30:08;6.15;;;3.88;;
26191;SDS011;13935;55.672;37.764;2023-06-14T07:31:11;5.28;;;3.50;;
26191;SDS011;13935;55.672;37.764;2023-06-14T07:32:14;6.97;;;3.72;;
26191;SDS011;13935;55.672;37.764;2023-06-14T07:33:16;5.38;;;3.75;;
26191;SDS011;13935;55.672;37.764;2023-06-14T07:34:19;7.60;;;3.90;;
26191;SDS011;13935;55.672;37.764;2023-06-14T07:35:22;7.32;;;3.47;;
26191;SDS011;13935;55.672;37.764;2023-06-14T07:36:24;7.80;;;3.72;;
26191;SDS011;13935;55.672;37.764;2023-06-14T07:37:29;4.93;;;3.30;;
26191;SDS011;13935;55.672;37.764;2023-06-14T07:38:31;8.38;;;3.58;;
26191;SDS011;13935;55.672;37.764;2023-06-14T07:39:33;6.00;;;3.42;;
26191;SDS011;13935;55.672;37.764;2023-06-14T07:40:36;7.60;;;3.53;;
26191;SDS011;13935;55.672;37.764;2023-06-14T07:41:38;11.43;;;3.70;;
26191;SDS011;13935;55.672;37.764;2023-06-14T07:42:41;8.00;;;3.60;;
26191;SDS011;13935;55.672;37.764;2023-06-14T07:43:43;6.20;;;3.88;;
26191;SDS011;13935;55.672;37.764;2023-06-14T07:44:46;7.45;;;3.90;;
26191;SDS011;13935;55.672;37.764;2023-06-14T07:45:48;4.97;;;3.50;;
26191;SDS011;13935;55.672;37.764;2023-06-14T07:47:07;7.22;;;4.28;;
26191;SDS011;13935;55.672;37.764;2023-06-14T07:48:10;9.93;;;4.22;;
26191;SDS011;13935;55.672;37.764;2023-06-14T07:49:13;6.25;;;3.75;;
26191;SDS011;13935;55.672;37.764;2023-06-14T07:50:15;7.50;;;3.80;;
26191;SDS011;13935;55.672;37.764;2023-06-14T07:51:17;7.07;;;4.20;;
26191;SDS011;13935;55.672;37.764;2023-06-14T07:52:20;6.18;;;4.22;;
26191;SDS011;13935;55.672;37.764;2023-06-14T07:53:25;8.88;;;4.20;;
26191;SDS011;13935;55.672;37.764;2023-06-14T07:54:28;7.70;;;4.22;;
26191;SDS011;13935;55.672;37.764;2023-06-14T07:55:32;7.43;;;3.88;;
26191;SDS011;13935;55.672;37.764;2023-06-14T07:56:54;8.25;;;3.80;;
26191;SDS011;13935;55.672;37.764;2023-06-14T07:57:58;9.27;;;3.78;;
26191;SDS011;13935;55.672;37.764;2023-06-14T07:59:01;7.45;;;3.80;;
26191;SDS011;13935;55.672;37.764;2023-06-14T08:00:04;7.32;;;3.60;;
26191;SDS011;13935;55.672;37.764;2023-06-14T08:02:15;9.07;;;4.30;;
26191;SDS011;13935;55.672;37.764;2023-06-14T08:03:17;4.97;;;3.72;;
26191;SDS011;13935;55.672;37.764;2023-06-14T08:04:20;7.32;;;3.95;;
26191;SDS011;13935;55.672;37.764;2023-06-14T08:05:23;6.35;;;3.55;;
26191;SDS011;13935;55.672;37.764;2023-06-14T08:06:25;6.85;;;4.07;;
26191;SDS011;13935;55.672;37.764;2023-06-14T08:07:39;5.50;;;3.38;;
26191;SDS011;13935;55.672;37.764;2023-06-14T08:08:44;9.18;;;4.00;;
26191;SDS011;13935;55.672;37.764;2023-06-14T08:09:46;7.97;;;4.32;;
26191;SDS011;13935;55.672;37.764;2023-06-14T08:10:48;5.90;;;3.90;;
26191;SDS011;13935;55.672;37.764;2023-06-14T08:11:52;6.35;;;3.90;;
26191;SDS011;13935;55.672;37.764;2023-06-14T08:12:59;6.00;;;4.03;;
26191;SDS011;13935;55.672;37.764;2023-06-14T08:14:01;7.10;;;4.07;;
26191;SDS011;13935;55.672;37.764;2023-06-14T08:15:05;7.57;;;4.18;;
26191;SDS011;13935;55.672;37.764;2023-06-14T08:16:10;10.30;;;4.00;;
26191;SDS011;13935;55.672;37.764;2023-06-14T08:17:14;7.20;;;4.05;;
26191;SDS011;13935;55.672;37.764;2023-06-14T08:18:17;7.22;;;3.78;;
26191;SDS011;13935;55.672;37.764;2023-06-14T08:19:19;6.38;;;4.07;;
26191;SDS011;13935;55.672;37.764;2023-06-14T08:20:23;7.88;;;3.80;;
26191;SDS011;13935;55.672;37.764;2023-06-14T08:21:26;5.15;;;3.83;;
26191;SDS011;13935;55.672;37.764;2023-06-14T08:22:31;7.63;;;4.10;;
26191;SDS011;13935;55.672;37.764;2023-06-14T08:23:35;6.85;;;3.63;;
26191;SDS011;13935;55.672;37.764;2023-06-14T08:24:38;5.72;;;4.30;;
26191;SDS011;13935;55.672;37.764;2023-06-14T08:25:41;7.05;;;4.30;;
26191;SDS011;13935;55.672;37.764;2023-06-14T08:26:43;6.60;;;4.03;;
26191;SDS011;13935;55.672;37.764;2023-06-14T08:27:47;8.25;;;4.15;;
26191;SDS011;13935;55.672;37.764;2023-06-14T08:28:49;6.30;;;3.83;;
26191;SDS011;13935;55.672;37.764;2023-06-14T08:29:52;9.73;;;3.85;;
26191;SDS011;13935;55.672;37.764;2023-06-14T08:30:56;5.88;;;4.18;;
26191;SDS011;13935;55.672;37.764;2023-06-14T08:32:00;6.88;;;4.13;;
26191;SDS011;13935;55.672;37.764;2023-06-14T08:33:05;6.35;;;4.03;;
26191;SDS011;13935;55.672;37.764;2023-06-14T08:34:17;8.80;;;3.80;;
26191;SDS011;13935;55.672;37.764;2023-06-14T08:35:20;11.85;;;4.05;;
26191;SDS011;13935;55.672;37.764;2023-06-14T08:36:23;9.07;;;4.40;;
26191;SDS011;13935;55.672;37.764;2023-06-14T08:37:27;6.88;;;4.03;;
26191;SDS011;13935;55.672;37.764;2023-06-14T08:38:33;6.85;;;4.10;;
26191;SDS011;13935;55.672;37.764;2023-06-14T08:39:35;8.90;;;4.20;;
26191;SDS011;13935;55.672;37.764;2023-06-14T08:40:38;11.43;;;4.20;;
26191;SDS011;13935;55.672;37.764;2023-06-14T08:41:42;7.63;;;4.30;;
26191;SDS011;13935;55.672;37.764;2023-06-14T08:42:54;6.75;;;4.35;;
26191;SDS011;13935;55.672;37.764;2023-06-14T08:43:58;8.50;;;4.57;;
26191;SDS011;13935;55.672;37.764;2023-06-14T08:45:03;7.43;;;4.47;;
26191;SDS011;13935;55.672;37.764;2023-06-14T08:46:07;8.93;;;4.22;;
26191;SDS011;13935;55.672;37.764;2023-06-14T08:47:14;10.52;;;4.57;;
26191;SDS011;13935;55.672;37.764;2023-06-14T08:48:22;9.23;;;4.70;;
26191;SDS011;13935;55.672;37.764;2023-06-14T08:49:28;6.80;;;4.40;;
26191;SDS011;13935;55.672;37.764;2023-06-14T08:50:32;6.93;;;5.03;;
26191;SDS011;13935;55.672;37.764;2023-06-14T08:51:37;9.98;;;4.32;;
26191;SDS011;13935;55.672;37.764;2023-06-14T08:52:45;6.60;;;4.10;;
26191;SDS011;13935;55.672;37.764;2023-06-14T08:53:55;7.03;;;4.22;;
26191;SDS011;13935;55.672;37.764;2023-06-14T08:56:04;6.18;;;4.28;;
26191;SDS011;13935;55.672;37.764;2023-06-14T08:57:07;9.32;;;4.20;;
26191;SDS011;13935;55.672;37.764;2023-06-14T08:58:10;9.68;;;4.68;;
26191;SDS011;13935;55.672;37.764;2023-06-14T08:59:17;7.65;;;4.35;;
26191;SDS011;13935;55.672;37.764;2023-06-14T09:00:20;9.98;;;4.80;;
26191;SDS011;13935;55.672;37.764;2023-06-14T09:01:26;7.97;;;4.45;;
26191;SDS011;13935;55.672;37.764;2023-06-14T09:02:29;5.97;;;4.40;;
26191;SDS011;13935;55.672;37.764;2023-06-14T09:03:32;8.82;;;4.60;;
26191;SDS011;13935;55.672;37.764;2023-06-14T09:04:37;9.30;;;5.57;;
26191;SDS011;13935;55.672;37.764;2023-06-14T09:05:41;11.85;;;5.05;;
26191;SDS011;13935;55.672;37.764;2023-06-14T09:06:44;7.35;;;4.05;;
26191;SDS011;13935;55.672;37.764;2023-06-14T09:08:02;8.13;;;4.40;;
26191;SDS011;13935;55.672;37.764;2023-06-14T09:09:09;8.18;;;4.85;;
26191;SDS011;13935;55.672;37.764;2023-06-14T09:10:13;8.63;;;4.50;;
26191;SDS011;13935;55.672;37.764;2023-06-14T09:11:18;8.32;;;4.28;;
26191;SDS011;13935;55.672;37.764;2023-06-14T09:12:21;8.05;;;4.20;;
26191;SDS011;13935;55.672;37.764;2023-06-14T09:13:24;7.50;;;4.40;;
26191;SDS011;13935;55.672;37.764;2023-06-14T09:14:33;6.65;;;4.07;;
26191;SDS011;13935;55.672;37.764;2023-06-14T09:15:40;9.90;;;4.60;;
26191;SDS011;13935;55.672;37.764;2023-06-14T09:16:42;11.55;;;5.65;;
26191;SDS011;13935;55.672;37.764;2023-06-14T09:17:45;9.02;;;4.50;;
26191;SDS011;13935;55.672;37.764;2023-06-14T09:18:47;7.03;;;5.20;;
26191;SDS011;13935;55.672;37.764;2023-06-14T09:19:50;6.78;;;4.50;;
26191;SDS011;13935;55.672;37.764;2023-06-14T09:20:52;13.57;;;5.18;;
26191;SDS011;13935;55.672;37.764;2023-06-14T09:21:55;8.50;;;4.75;;
26191;SDS011;13935;55.672;37.764;2023-06-14T09:22:57;8.63;;;4.43;;
26191;SDS011;13935;55.672;37.764;2023-06-14T09:24:00;10.55;;;5.30;;
26191;SDS011;13935;55.672;37.764;2023-06-14T09:25:03;8.48;;;4.80;;
26191;SDS011;13935;55.672;37.764;2023-06-14T09:26:13;9.23;;;5.15;;
26191;SDS011;13935;55.672;37.764;2023-06-14T09:27:17;9.98;;;5.28;;
26191;SDS011;13935;55.672;37.764;2023-06-14T09:28:20;7.20;;;4.90;;
26191;SDS011;13935;55.672;37.764;2023-06-14T09:29:28;8.38;;;4.65;;
26191;SDS011;13935;55.672;37.764;2023-06-14T09:30:32;8.57;;;4.68;;
26191;SDS011;13935;55.672;37.764;2023-06-14T09:31:34;10.88;;;5.38;;
26191;SDS011;13935;55.672;37.764;2023-06-14T09:32:37;13.13;;;4.93;;
26191;SDS011;13935;55.672;37.764;2023-06-14T09:33:47;7.45;;;4.60;;
26191;SDS011;13935;55.672;37.764;2023-06-14T09:34:50;6.82;;;4.63;;
26191;SDS011;13935;55.672;37.764;2023-06-14T09:35:56;8.50;;;4.88;;
26191;SDS011;13935;55.672;37.764;2023-06-14T09:36:58;6.32;;;4.70;;
26191;SDS011;13935;55.672;37.764;2023-06-14T09:38:01;10.38;;;4.93;;
26191;SDS011;13935;55.672;37.764;2023-06-14T09:39:03;9.15;;;5.22;;
26191;SDS011;13935;55.672;37.764;2023-06-14T09:40:09;5.88;;;4.63;;
26191;SDS011;13935;55.672;37.764;2023-06-14T09:41:12;6.97;;;4.60;;
26191;SDS011;13935;55.672;37.764;2023-06-14T09:42:17;8.77;;;6.50;;
26191;SDS011;13935;55.672;37.764;2023-06-14T09:43:26;9.70;;;5.57;;
26191;SDS011;13935;55.672;37.764;2023-06-14T09:44:29;8.50;;;5.10;;
26191;SDS011;13935;55.672;37.764;2023-06-14T09:45:32;9.80;;;5.70;;
26191;SDS011;13935;55.672;37.764;2023-06-14T09:46:35;8.60;;;5.22;;
26191;SDS011;13935;55.672;37.764;2023-06-14T09:47:38;6.75;;;4.68;;
26191;SDS011;13935;55.672;37.764;2023-06-14T09:48:57;11.38;;;6.15;;
26191;SDS011;13935;55.672;37.764;2023-06-14T09:50:00;9.65;;;5.10;;
26191;SDS011;13935;55.672;37.764;2023-06-14T09:51:04;9.05;;;5.47;;
26191;SDS011;13935;55.672;37.764;2023-06-14T09:52:15;10.90;;;5.57;;
26191;SDS011;13935;55.672;37.764;2023-06-14T09:54:48;8.95;;;4.53;;
26191;SDS011;13935;55.672;37.764;2023-06-14T09:55:52;6.93;;;4.68;;
26191;SDS011;13935;55.672;37.764;2023-06-14T09:56:56;8.05;;;4.80;;
26191;SDS011;13935;55.672;37.764;2023-06-14T09:57:59;7.65;;;5.30;;
26191;SDS011;13935;55.672;37.764;2023-06-14T09:59:05;11.52;;;5.35;;
26191;SDS011;13935;55.672;37.764;2023-06-14T10:00:10;7.15;;;4.85;;
26191;SDS011;13935;55.672;37.764;2023-06-14T10:01:17;9.00;;;4.68;;
26191;SDS011;13935;55.672;37.764;2023-06-14T10:02:27;10.57;;;4.75;;
26191;SDS011;13935;55.672;37.764;2023-06-14T10:03:35;9.75;;;4.40;;
26191;SDS011;13935;55.672;37.764;2023-06-14T10:05:03;10.63;;;4.78;;
26191;SDS011;13935;55.672;37.764;2023-06-14T10:06:08;7.22;;;4.43;;
26191;SDS011;13935;55.672;37.764;2023-06-14T10:07:13;6.90;;;4.63;;
26191;SDS011;13935;55.672;37.764;2023-06-14T10:09:27;7.22;;;4.57;;
26191;SDS011;13935;55.672;37.764;2023-06-14T10:10:33;10.07;;;4.95;;
26191;SDS011;13935;55.672;37.764;2023-06-14T10:11:36;8.07;;;4.22;;
26191;SDS011;13935;55.672;37.764;2023-06-14T10:12:46;8.20;;;4.70;;
26191;SDS011;13935;55.672;37.764;2023-06-14T10:13:49;8.57;;;4.45;;
26191;SDS011;13935;55.672;37.764;2023-06-14T10:14:54;9.70;;;4.78;;
26191;SDS011;13935;55.672;37.764;2023-06-14T10:16:07;7.97;;;4.50;;
26191;SDS011;13935;55.672;37.764;2023-06-14T10:17:20;9.75;;;4.85;;
26191;SDS011;13935;55.672;37.764;2023-06-14T10:18:45;8.43;;;4.40;;
26191;SDS011;13935;55.672;37.764;2023-06-14T10:19:55;9.00;;;4.35;;
26191;SDS011;13935;55.672;37.764;2023-06-14T10:21:28;8.48;;;4.63;;
26191;SDS011;13935;55.672;37.764;2023-06-14T10:23:48;9.35;;;4.47;;
26191;SDS011;13935;55.672;37.764;2023-06-14T10:24:52;7.95;;;4.55;;
26191;SDS011;13935;55.672;37.764;2023-06-14T10:25:56;7.45;;;4.18;;
26191;SDS011;13935;55.672;37.764;2023-06-14T10:26:59;5.45;;;4.18;;
26191;SDS011;13935;55.672;37.764;2023-06-14T10:29:25;10.05;;;4.32;;
26191;SDS011;13935;55.672;37.764;2023-06-14T10:30:34;9.98;;;4.95;;
26191;SDS011;13935;55.672;37.764;2023-06-14T10:31:40;7.75;;;4.20;;
26191;SDS011;13935;55.672;37.764;2023-06-14T10:34:10;7.47;;;4.85;;
26191;SDS011;13935;55.672;37.764;2023-06-14T10:35:15;6.10;;;4.75;;
26191;SDS011;13935;55.672;37.764;2023-06-14T10:37:24;10.35;;;4.88;;
26191;SDS011;13935;55.672;37.764;2023-06-14T10:38:30;8.27;;;4.45;;
26191;SDS011;13935;55.672;37.764;2023-06-14T10:39:43;7.28;;;4.80;;
26191;SDS011;13935;55.672;37.764;2023-06-14T10:40:52;7.47;;;4.40;;
26191;SDS011;13935;55.672;37.764;2023-06-14T10:41:57;8.10;;;4.57;;
26191;SDS011;13935;55.672;37.764;2023-06-14T10:45:12;9.50;;;4.93;;
26191;SDS011;13935;55.672;37.764;2023-06-14T10:48:29;7.72;;;4.50;;
26191;SDS011;13935;55.672;37.764;2023-06-14T10:49:44;12.23;;;5.05;;
26191;SDS011;13935;55.672;37.764;2023-06-14T10:50:47;10.00;;;4.90;;
26191;SDS011;13935;55.672;37.764;2023-06-14T10:51:51;9.20;;;5.00;;
26191;SDS011;13935;55.672;37.764;2023-06-14T10:52:55;7.68;;;4.85;;
26191;SDS011;13935;55.672;37.764;2023-06-14T10:53:58;10.90;;;5.72;;
26191;SDS011;13935;55.672;37.764;2023-06-14T10:55:05;19.20;;;12.13;;
26191;SDS011;13935;55.672;37.764;2023-06-14T10:56:27;8.40;;;4.68;;
26191;SDS011;13935;55.672;37.764;2023-06-14T10:57:33;8.30;;;4.85;;
26191;SDS011;13935;55.672;37.764;2023-06-14T10:58:51;9.82;;;4.82;;
26191;SDS011;13935;55.672;37.764;2023-06-14T10:59:54;9.45;;;4.43;;
26191;SDS011;13935;55.672;37.764;2023-06-14T11:00:56;9.80;;;4.55;;
26191;SDS011;13935;55.672;37.764;2023-06-14T11:05:08;7.60;;;4.68;;
26191;SDS011;13935;55.672;37.764;2023-06-14T11:06:17;8.15;;;5.03;;
26191;SDS011;13935;55.672;37.764;2023-06-14T11:11:35;7.82;;;4.57;;
26191;SDS011;13935;55.672;37.764;2023-06-14T11:12:38;8.68;;;5.10;;